sensor_id;sensor_type;location;lat;lon;timestamp;temperature;humidity
4520;DHT22;2272;49.226;8.108;2023-07-24T00:01:57;18.20;99.90
4520;DHT22;2272;49.226;8.108;2023-07-24T00:04:24;18.20;99.90
4520;DHT22;2272;49.226;8.108;2023-07-24T00:06:50;18.20;99.90
4520;DHT22;2272;49.226;8.108;2023-07-24T00:09:17;18.20;99.90
4520;DHT22;2272;49.226;8.108;2023-07-24T00:11:44;18.10;99.90
4520;DHT22;2272;49.226;8.108;2023-07-24T00:14:12;18.10;99.90
4520;DHT22;2272;49.226;8.108;2023-07-24T00:16:39;18.00;99.90
4520;DHT22;2272;49.226;8.108;2023-07-24T00:19:06;18.00;99.90
4520;DHT22;2272;49.226;8.108;2023-07-24T00:21:33;18.00;99.90
4520;DHT22;2272;49.226;8.108;2023-07-24T00:23:59;18.10;99.90
4520;DHT22;2272;49.226;8.108;2023-07-24T00:26:26;18.20;99.90
4520;DHT22;2272;49.226;8.108;2023-07-24T00:28:53;18.30;99.90
4520;DHT22;2272;49.226;8.108;2023-07-24T00:31:21;18.40;99.90
4520;DHT22;2272;49.226;8.108;2023-07-24T00:33:48;18.50;99.90
4520;DHT22;2272;49.226;8.108;2023-07-24T00:36:15;18.60;99.90
4520;DHT22;2272;49.226;8.108;2023-07-24T00:38:41;18.70;99.90
4520;DHT22;2272;49.226;8.108;2023-07-24T00:41:08;18.80;99.90
4520;DHT22;2272;49.226;8.108;2023-07-24T00:43:35;18.90;99.90
4520;DHT22;2272;49.226;8.108;2023-07-24T00:46:02;18.90;99.90
4520;DHT22;2272;49.226;8.108;2023-07-24T00:48:30;18.90;99.90
4520;DHT22;2272;49.226;8.108;2023-07-24T00:50:57;19.00;99.90
4520;DHT22;2272;49.226;8.108;2023-07-24T00:53:26;18.90;99.90
4520;DHT22;2272;49.226;8.108;2023-07-24T00:55:53;19.00;99.90
4520;DHT22;2272;49.226;8.108;2023-07-24T00:58:21;18.90;99.90
4520;DHT22;2272;49.226;8.108;2023-07-24T01:00:48;19.00;99.90
4520;DHT22;2272;49.226;8.108;2023-07-24T01:03:16;19.00;99.90
4520;DHT22;2272;49.226;8.108;2023-07-24T01:05:44;18.90;99.90
4520;DHT22;2272;49.226;8.108;2023-07-24T01:08:11;18.90;99.90
4520;DHT22;2272;49.226;8.108;2023-07-24T01:10:38;18.80;99.90
4520;DHT22;2272;49.226;8.108;2023-07-24T01:13:08;18.80;99.90
4520;DHT22;2272;49.226;8.108;2023-07-24T01:15:38;18.70;99.90
4520;DHT22;2272;49.226;8.108;2023-07-24T01:18:09;18.70;99.90
4520;DHT22;2272;49.226;8.108;2023-07-24T01:20:38;18.70;99.90
4520;DHT22;2272;49.226;8.108;2023-07-24T01:23:26;18.80;99.90
4520;DHT22;2272;49.226;8.108;2023-07-24T01:25:59;19.00;99.90
4520;DHT22;2272;49.226;8.108;2023-07-24T01:28:26;19.10;99.90
4520;DHT22;2272;49.226;8.108;2023-07-24T01:30:52;19.20;99.90
4520;DHT22;2272;49.226;8.108;2023-07-24T01:33:20;19.10;99.90
4520;DHT22;2272;49.226;8.108;2023-07-24T01:35:49;19.10;99.90
4520;DHT22;2272;49.226;8.108;2023-07-24T01:38:17;19.00;99.90
4520;DHT22;2272;49.226;8.108;2023-07-24T01:40:45;19.00;99.90
4520;DHT22;2272;49.226;8.108;2023-07-24T01:43:13;18.90;99.90
4520;DHT22;2272;49.226;8.108;2023-07-24T01:45:40;18.90;99.90
4520;DHT22;2272;49.226;8.108;2023-07-24T01:48:07;18.80;99.90
4520;DHT22;2272;49.226;8.108;2023-07-24T01:50:34;18.80;99.90
4520;DHT22;2272;49.226;8.108;2023-07-24T01:53:01;18.80;99.90
4520;DHT22;2272;49.226;8.108;2023-07-24T01:55:28;18.80;99.90
4520;DHT22;2272;49.226;8.108;2023-07-24T01:57:54;18.70;99.90
4520;DHT22;2272;49.226;8.108;2023-07-24T02:00:23;18.60;99.90
4520;DHT22;2272;49.226;8.108;2023-07-24T02:02:49;18.50;99.90
4520;DHT22;2272;49.226;8.108;2023-07-24T02:05:16;18.50;99.90
4520;DHT22;2272;49.226;8.108;2023-07-24T02:07:43;18.40;99.90
4520;DHT22;2272;49.226;8.108;2023-07-24T02:10:10;18.40;99.90
4520;DHT22;2272;49.226;8.108;2023-07-24T02:12:37;18.50;99.90
4520;DHT22;2272;49.226;8.108;2023-07-24T02:15:04;18.50;99.90
4520;DHT22;2272;49.226;8.108;2023-07-24T02:17:32;18.60;99.90
4520;DHT22;2272;49.226;8.108;2023-07-24T02:19:59;18.50;99.90
4520;DHT22;2272;49.226;8.108;2023-07-24T02:22:26;18.60;99.90
4520;DHT22;2272;49.226;8.108;2023-07-24T02:24:53;18.50;99.90
4520;DHT22;2272;49.226;8.108;2023-07-24T02:27:27;18.60;99.90
4520;DHT22;2272;49.226;8.108;2023-07-24T02:29:54;18.60;99.90
4520;DHT22;2272;49.226;8.108;2023-07-24T02:32:21;18.60;99.90
4520;DHT22;2272;49.226;8.108;2023-07-24T02:34:50;18.60;99.90
4520;DHT22;2272;49.226;8.108;2023-07-24T02:37:17;18.50;99.90
4520;DHT22;2272;49.226;8.108;2023-07-24T02:39:44;18.40;99.90
4520;DHT22;2272;49.226;8.108;2023-07-24T02:42:10;18.30;99.90
4520;DHT22;2272;49.226;8.108;2023-07-24T02:44:38;18.20;99.90
4520;DHT22;2272;49.226;8.108;2023-07-24T02:47:04;18.00;99.90
4520;DHT22;2272;49.226;8.108;2023-07-24T02:49:32;17.90;99.90
4520;DHT22;2272;49.226;8.108;2023-07-24T02:52:00;17.90;99.90
4520;DHT22;2272;49.226;8.108;2023-07-24T02:54:27;17.80;99.90
4520;DHT22;2272;49.226;8.108;2023-07-24T02:56:53;17.80;99.90
4520;DHT22;2272;49.226;8.108;2023-07-24T02:59:20;17.80;99.90
4520;DHT22;2272;49.226;8.108;2023-07-24T03:01:47;17.80;99.90
4520;DHT22;2272;49.226;8.108;2023-07-24T03:04:14;17.70;99.90
4520;DHT22;2272;49.226;8.108;2023-07-24T03:06:41;17.70;99.90
4520;DHT22;2272;49.226;8.108;2023-07-24T03:09:09;17.60;99.90
4520;DHT22;2272;49.226;8.108;2023-07-24T03:11:36;17.60;99.90
4520;DHT22;2272;49.226;8.108;2023-07-24T03:14:02;17.60;99.90
4520;DHT22;2272;49.226;8.108;2023-07-24T03:16:30;17.60;99.90
4520;DHT22;2272;49.226;8.108;2023-07-24T03:18:56;17.60;99.90
4520;DHT22;2272;49.226;8.108;2023-07-24T03:21:23;17.70;99.90
4520;DHT22;2272;49.226;8.108;2023-07-24T03:23:50;17.50;99.90
4520;DHT22;2272;49.226;8.108;2023-07-24T03:26:18;17.50;99.90
4520;DHT22;2272;49.226;8.108;2023-07-24T03:28:45;17.50;99.90
4520;DHT22;2272;49.226;8.108;2023-07-24T03:31:12;17.40;99.90
4520;DHT22;2272;49.226;8.108;2023-07-24T03:33:39;17.40;99.90
4520;DHT22;2272;49.226;8.108;2023-07-24T03:36:05;17.30;99.90
4520;DHT22;2272;49.226;8.108;2023-07-24T03:38:32;17.30;99.90
4520;DHT22;2272;49.226;8.108;2023-07-24T03:41:00;17.20;99.90
4520;DHT22;2272;49.226;8.108;2023-07-24T03:43:28;17.20;99.90
4520;DHT22;2272;49.226;8.108;2023-07-24T03:45:55;17.20;99.90
4520;DHT22;2272;49.226;8.108;2023-07-24T03:48:22;17.20;99.90
4520;DHT22;2272;49.226;8.108;2023-07-24T03:50:49;17.20;99.90
4520;DHT22;2272;49.226;8.108;2023-07-24T03:53:16;17.20;99.90
4520;DHT22;2272;49.226;8.108;2023-07-24T03:55:43;17.30;99.90
4520;DHT22;2272;49.226;8.108;2023-07-24T03:58:11;17.40;99.90
4520;DHT22;2272;49.226;8.108;2023-07-24T04:00:39;17.50;99.90
4520;DHT22;2272;49.226;8.108;2023-07-24T04:03:07;17.60;99.90
4520;DHT22;2272;49.226;8.108;2023-07-24T04:05:34;17.60;99.90
4520;DHT22;2272;49.226;8.108;2023-07-24T04:08:01;17.60;99.90
4520;DHT22;2272;49.226;8.108;2023-07-24T04:10:28;17.50;99.90
4520;DHT22;2272;49.226;8.108;2023-07-24T04:12:56;17.50;99.90
4520;DHT22;2272;49.226;8.108;2023-07-24T04:15:23;17.50;99.90
4520;DHT22;2272;49.226;8.108;2023-07-24T04:17:52;17.50;99.90
4520;DHT22;2272;49.226;8.108;2023-07-24T04:20:18;17.50;99.90
4520;DHT22;2272;49.226;8.108;2023-07-24T04:22:45;17.50;99.90
4520;DHT22;2272;49.226;8.108;2023-07-24T04:25:12;17.60;99.90
4520;DHT22;2272;49.226;8.108;2023-07-24T04:27:39;17.70;99.90
4520;DHT22;2272;49.226;8.108;2023-07-24T04:30:07;17.80;99.90
4520;DHT22;2272;49.226;8.108;2023-07-24T04:32:34;17.90;99.90
4520;DHT22;2272;49.226;8.108;2023-07-24T04:35:04;17.90;99.90
4520;DHT22;2272;49.226;8.108;2023-07-24T04:37:31;18.00;99.90
4520;DHT22;2272;49.226;8.108;2023-07-24T04:39:58;18.10;99.90
4520;DHT22;2272;49.226;8.108;2023-07-24T04:42:24;18.20;99.90
4520;DHT22;2272;49.226;8.108;2023-07-24T04:44:54;18.20;99.90
4520;DHT22;2272;49.226;8.108;2023-07-24T04:47:20;18.10;99.90
4520;DHT22;2272;49.226;8.108;2023-07-24T04:49:47;18.10;99.90
4520;DHT22;2272;49.226;8.108;2023-07-24T04:52:15;18.10;99.90
4520;DHT22;2272;49.226;8.108;2023-07-24T04:54:42;18.10;99.90
4520;DHT22;2272;49.226;8.108;2023-07-24T04:57:09;18.10;99.90
4520;DHT22;2272;49.226;8.108;2023-07-24T04:59:36;18.10;99.90
4520;DHT22;2272;49.226;8.108;2023-07-24T05:02:03;18.10;99.90
4520;DHT22;2272;49.226;8.108;2023-07-24T05:04:30;18.10;99.90
4520;DHT22;2272;49.226;8.108;2023-07-24T05:06:57;18.20;99.90
4520;DHT22;2272;49.226;8.108;2023-07-24T05:09:26;18.30;99.90
4520;DHT22;2272;49.226;8.108;2023-07-24T05:11:53;18.30;99.90
4520;DHT22;2272;49.226;8.108;2023-07-24T05:14:24;18.40;99.90
4520;DHT22;2272;49.226;8.108;2023-07-24T05:16:53;18.40;99.90
4520;DHT22;2272;49.226;8.108;2023-07-24T05:19:25;18.40;99.90
4520;DHT22;2272;49.226;8.108;2023-07-24T05:21:54;18.30;99.90
4520;DHT22;2272;49.226;8.108;2023-07-24T05:24:21;18.30;99.90
4520;DHT22;2272;49.226;8.108;2023-07-24T05:26:50;18.40;99.90
4520;DHT22;2272;49.226;8.108;2023-07-24T05:29:16;18.40;99.90
4520;DHT22;2272;49.226;8.108;2023-07-24T05:31:43;18.40;99.90
4520;DHT22;2272;49.226;8.108;2023-07-24T05:34:10;18.40;99.90
4520;DHT22;2272;49.226;8.108;2023-07-24T05:36:37;18.30;99.90
4520;DHT22;2272;49.226;8.108;2023-07-24T05:39:04;18.30;99.90
4520;DHT22;2272;49.226;8.108;2023-07-24T05:41:36;18.30;99.90
4520;DHT22;2272;49.226;8.108;2023-07-24T05:44:07;18.30;99.90
4520;DHT22;2272;49.226;8.108;2023-07-24T05:47:02;18.30;99.90
4520;DHT22;2272;49.226;8.108;2023-07-24T05:49:40;18.40;99.90
4520;DHT22;2272;49.226;8.108;2023-07-24T05:52:07;18.40;99.90
4520;DHT22;2272;49.226;8.108;2023-07-24T05:54:37;18.50;99.90
4520;DHT22;2272;49.226;8.108;2023-07-24T05:57:05;18.60;99.90
4520;DHT22;2272;49.226;8.108;2023-07-24T05:59:35;18.80;99.90
4520;DHT22;2272;49.226;8.108;2023-07-24T06:02:02;19.00;99.90
4520;DHT22;2272;49.226;8.108;2023-07-24T06:04:29;19.30;99.90
4520;DHT22;2272;49.226;8.108;2023-07-24T06:06:56;19.40;99.90
4520;DHT22;2272;49.226;8.108;2023-07-24T06:09:23;19.60;99.90
4520;DHT22;2272;49.226;8.108;2023-07-24T06:11:50;19.70;99.90
4520;DHT22;2272;49.226;8.108;2023-07-24T06:14:20;19.70;99.90
4520;DHT22;2272;49.226;8.108;2023-07-24T06:16:48;19.80;99.90
4520;DHT22;2272;49.226;8.108;2023-07-24T06:19:15;19.90;99.90
4520;DHT22;2272;49.226;8.108;2023-07-24T06:21:42;20.10;99.90
4520;DHT22;2272;49.226;8.108;2023-07-24T06:24:15;20.20;99.90
4520;DHT22;2272;49.226;8.108;2023-07-24T06:26:43;20.40;99.90
4520;DHT22;2272;49.226;8.108;2023-07-24T06:29:10;20.60;99.90
4520;DHT22;2272;49.226;8.108;2023-07-24T06:31:37;20.90;99.90
4520;DHT22;2272;49.226;8.108;2023-07-24T06:34:09;21.20;99.90
4520;DHT22;2272;49.226;8.108;2023-07-24T06:36:35;21.50;99.90
4520;DHT22;2272;49.226;8.108;2023-07-24T06:39:03;21.70;99.90
4520;DHT22;2272;49.226;8.108;2023-07-24T06:41:29;21.90;99.90
4520;DHT22;2272;49.226;8.108;2023-07-24T06:43:56;22.10;99.90
4520;DHT22;2272;49.226;8.108;2023-07-24T06:46:23;22.30;99.90
4520;DHT22;2272;49.226;8.108;2023-07-24T06:48:50;22.50;99.90
4520;DHT22;2272;49.226;8.108;2023-07-24T06:51:18;22.80;99.90
4520;DHT22;2272;49.226;8.108;2023-07-24T06:53:45;23.00;99.90
4520;DHT22;2272;49.226;8.108;2023-07-24T06:56:11;23.10;99.90
4520;DHT22;2272;49.226;8.108;2023-07-24T06:58:39;23.20;99.90
4520;DHT22;2272;49.226;8.108;2023-07-24T07:01:06;23.20;99.90
4520;DHT22;2272;49.226;8.108;2023-07-24T07:03:33;23.30;99.90
4520;DHT22;2272;49.226;8.108;2023-07-24T07:06:14;23.50;99.90
4520;DHT22;2272;49.226;8.108;2023-07-24T07:08:43;23.90;99.90
4520;DHT22;2272;49.226;8.108;2023-07-24T07:11:09;24.20;99.90
4520;DHT22;2272;49.226;8.108;2023-07-24T07:13:36;24.60;99.90
4520;DHT22;2272;49.226;8.108;2023-07-24T07:16:04;25.00;99.90
4520;DHT22;2272;49.226;8.108;2023-07-24T07:18:32;25.20;99.90
4520;DHT22;2272;49.226;8.108;2023-07-24T07:20:59;25.30;99.90
4520;DHT22;2272;49.226;8.108;2023-07-24T07:23:27;25.30;99.90
4520;DHT22;2272;49.226;8.108;2023-07-24T07:25:55;25.10;99.90
4520;DHT22;2272;49.226;8.108;2023-07-24T07:28:22;24.90;99.90
4520;DHT22;2272;49.226;8.108;2023-07-24T07:30:48;24.80;99.90
4520;DHT22;2272;49.226;8.108;2023-07-24T07:33:15;24.80;99.90
4520;DHT22;2272;49.226;8.108;2023-07-24T07:35:43;24.90;99.90
4520;DHT22;2272;49.226;8.108;2023-07-24T07:38:09;25.10;99.90
4520;DHT22;2272;49.226;8.108;2023-07-24T07:40:37;25.20;99.90
4520;DHT22;2272;49.226;8.108;2023-07-24T07:43:07;25.30;99.90
4520;DHT22;2272;49.226;8.108;2023-07-24T07:45:39;25.30;99.90
4520;DHT22;2272;49.226;8.108;2023-07-24T07:48:07;25.30;99.90
4520;DHT22;2272;49.226;8.108;2023-07-24T07:50:34;25.20;99.90
4520;DHT22;2272;49.226;8.108;2023-07-24T07:53:01;25.20;99.90
4520;DHT22;2272;49.226;8.108;2023-07-24T07:55:28;25.20;99.90
4520;DHT22;2272;49.226;8.108;2023-07-24T07:57:55;25.10;99.90
4520;DHT22;2272;49.226;8.108;2023-07-24T08:00:24;25.20;99.90
4520;DHT22;2272;49.226;8.108;2023-07-24T08:02:51;25.30;99.90
4520;DHT22;2272;49.226;8.108;2023-07-24T08:05:18;25.40;99.90
4520;DHT22;2272;49.226;8.108;2023-07-24T08:07:45;25.60;99.90
4520;DHT22;2272;49.226;8.108;2023-07-24T08:10:24;25.70;99.90
4520;DHT22;2272;49.226;8.108;2023-07-24T08:12:51;25.70;99.90
4520;DHT22;2272;49.226;8.108;2023-07-24T08:15:18;25.80;99.90
4520;DHT22;2272;49.226;8.108;2023-07-24T08:17:46;26.10;99.90
4520;DHT22;2272;49.226;8.108;2023-07-24T08:20:13;26.30;99.90
4520;DHT22;2272;49.226;8.108;2023-07-24T08:22:40;26.50;99.90
4520;DHT22;2272;49.226;8.108;2023-07-24T08:25:07;26.50;99.90
4520;DHT22;2272;49.226;8.108;2023-07-24T08:27:51;26.70;99.90
4520;DHT22;2272;49.226;8.108;2023-07-24T08:30:34;26.90;99.90
4520;DHT22;2272;49.226;8.108;2023-07-24T08:33:03;27.30;99.90
4520;DHT22;2272;49.226;8.108;2023-07-24T08:35:35;27.60;99.90
4520;DHT22;2272;49.226;8.108;2023-07-24T08:38:02;27.80;99.40
4520;DHT22;2272;49.226;8.108;2023-07-24T08:40:28;27.60;98.90
4520;DHT22;2272;49.226;8.108;2023-07-24T08:43:00;27.50;98.80
4520;DHT22;2272;49.226;8.108;2023-07-24T08:45:28;27.40;98.50
4520;DHT22;2272;49.226;8.108;2023-07-24T08:47:55;27.10;98.70
4520;DHT22;2272;49.226;8.108;2023-07-24T08:50:27;26.70;99.30
4520;DHT22;2272;49.226;8.108;2023-07-24T08:52:59;26.70;99.40
4520;DHT22;2272;49.226;8.108;2023-07-24T08:55:29;26.70;99.20
4520;DHT22;2272;49.226;8.108;2023-07-24T08:58:24;26.50;99.60
4520;DHT22;2272;49.226;8.108;2023-07-24T09:00:56;26.50;99.20
4520;DHT22;2272;49.226;8.108;2023-07-24T09:03:23;26.90;99.20
4520;DHT22;2272;49.226;8.108;2023-07-24T09:05:53;27.80;98.30
4520;DHT22;2272;49.226;8.108;2023-07-24T09:08:28;28.40;97.00
4520;DHT22;2272;49.226;8.108;2023-07-24T09:10:55;28.80;96.50
4520;DHT22;2272;49.226;8.108;2023-07-24T09:13:22;29.30;95.40
4520;DHT22;2272;49.226;8.108;2023-07-24T09:15:49;29.50;94.40
4520;DHT22;2272;49.226;8.108;2023-07-24T09:18:16;29.30;94.20
4520;DHT22;2272;49.226;8.108;2023-07-24T09:20:45;29.20;94.00
4520;DHT22;2272;49.226;8.108;2023-07-24T09:23:14;28.80;94.30
4520;DHT22;2272;49.226;8.108;2023-07-24T09:25:43;28.60;94.90
4520;DHT22;2272;49.226;8.108;2023-07-24T09:28:11;28.80;95.00
4520;DHT22;2272;49.226;8.108;2023-07-24T09:30:38;29.20;94.50
4520;DHT22;2272;49.226;8.108;2023-07-24T09:33:06;29.60;93.90
4520;DHT22;2272;49.226;8.108;2023-07-24T09:35:33;29.70;93.00
4520;DHT22;2272;49.226;8.108;2023-07-24T09:38:05;29.50;93.20
4520;DHT22;2272;49.226;8.108;2023-07-24T09:40:41;29.10;93.10
4520;DHT22;2272;49.226;8.108;2023-07-24T09:43:19;28.60;93.00
4520;DHT22;2272;49.226;8.108;2023-07-24T09:45:47;27.90;93.50
4520;DHT22;2272;49.226;8.108;2023-07-24T09:48:16;27.50;94.20
4520;DHT22;2272;49.226;8.108;2023-07-24T09:50:44;26.90;94.70
4520;DHT22;2272;49.226;8.108;2023-07-24T09:53:20;26.40;95.10
4520;DHT22;2272;49.226;8.108;2023-07-24T09:55:56;26.10;95.90
4520;DHT22;2272;49.226;8.108;2023-07-24T09:58:24;25.90;96.50
4520;DHT22;2272;49.226;8.108;2023-07-24T10:00:52;25.70;96.70
4520;DHT22;2272;49.226;8.108;2023-07-24T10:03:21;25.70;97.10
4520;DHT22;2272;49.226;8.108;2023-07-24T10:05:49;25.60;97.50
4520;DHT22;2272;49.226;8.108;2023-07-24T10:08:18;25.40;98.20
4520;DHT22;2272;49.226;8.108;2023-07-24T10:10:45;25.20;98.80
4520;DHT22;2272;49.226;8.108;2023-07-24T10:13:14;25.10;99.10
4520;DHT22;2272;49.226;8.108;2023-07-24T10:15:41;25.00;99.80
4520;DHT22;2272;49.226;8.108;2023-07-24T10:18:09;25.00;99.90
4520;DHT22;2272;49.226;8.108;2023-07-24T10:20:38;25.10;99.90
4520;DHT22;2272;49.226;8.108;2023-07-24T10:23:06;25.20;99.90
4520;DHT22;2272;49.226;8.108;2023-07-24T10:25:35;25.20;99.90
4520;DHT22;2272;49.226;8.108;2023-07-24T10:28:03;25.20;99.90
4520;DHT22;2272;49.226;8.108;2023-07-24T10:30:34;25.30;99.90
4520;DHT22;2272;49.226;8.108;2023-07-24T10:33:06;25.40;99.90
4520;DHT22;2272;49.226;8.108;2023-07-24T10:35:38;25.50;99.90
4520;DHT22;2272;49.226;8.108;2023-07-24T10:38:05;25.80;99.90
4520;DHT22;2272;49.226;8.108;2023-07-24T10:40:33;25.90;99.90
4520;DHT22;2272;49.226;8.108;2023-07-24T10:43:01;26.10;99.90
4520;DHT22;2272;49.226;8.108;2023-07-24T10:45:46;26.10;99.90
4520;DHT22;2272;49.226;8.108;2023-07-24T10:48:14;26.30;99.90
4520;DHT22;2272;49.226;8.108;2023-07-24T10:50:42;26.30;99.90
4520;DHT22;2272;49.226;8.108;2023-07-24T10:53:09;26.40;99.90
4520;DHT22;2272;49.226;8.108;2023-07-24T10:55:36;26.50;99.90
4520;DHT22;2272;49.226;8.108;2023-07-24T10:58:10;26.60;99.90
4520;DHT22;2272;49.226;8.108;2023-07-24T11:00:38;26.80;99.90
4520;DHT22;2272;49.226;8.108;2023-07-24T11:03:09;26.50;99.90
4520;DHT22;2272;49.226;8.108;2023-07-24T11:05:39;26.30;99.90
4520;DHT22;2272;49.226;8.108;2023-07-24T11:08:09;26.10;99.90
4520;DHT22;2272;49.226;8.108;2023-07-24T11:10:45;26.10;99.90
4520;DHT22;2272;49.226;8.108;2023-07-24T11:13:13;26.00;99.90
4520;DHT22;2272;49.226;8.108;2023-07-24T11:15:42;26.20;99.90
4520;DHT22;2272;49.226;8.108;2023-07-24T11:18:10;26.50;99.90
4520;DHT22;2272;49.226;8.108;2023-07-24T11:20:44;26.80;99.90
4520;DHT22;2272;49.226;8.108;2023-07-24T11:23:12;27.10;99.90
4520;DHT22;2272;49.226;8.108;2023-07-24T11:25:44;27.20;99.90
4520;DHT22;2272;49.226;8.108;2023-07-24T11:28:13;27.40;99.90
4520;DHT22;2272;49.226;8.108;2023-07-24T11:30:40;27.80;99.90
4520;DHT22;2272;49.226;8.108;2023-07-24T11:33:16;28.00;99.90
4520;DHT22;2272;49.226;8.108;2023-07-24T11:35:44;28.20;99.90
4520;DHT22;2272;49.226;8.108;2023-07-24T11:38:14;28.60;99.90
4520;DHT22;2272;49.226;8.108;2023-07-24T11:40:48;28.80;99.60
4520;DHT22;2272;49.226;8.108;2023-07-24T11:43:17;28.70;99.60
4520;DHT22;2272;49.226;8.108;2023-07-24T11:45:45;28.50;99.80
4520;DHT22;2272;49.226;8.108;2023-07-24T11:48:12;28.60;99.90
4520;DHT22;2272;49.226;8.108;2023-07-24T11:50:45;28.80;99.50
4520;DHT22;2272;49.226;8.108;2023-07-24T11:53:22;28.90;99.20
4520;DHT22;2272;49.226;8.108;2023-07-24T11:55:50;28.70;99.50
4520;DHT22;2272;49.226;8.108;2023-07-24T11:58:17;28.30;99.90
4520;DHT22;2272;49.226;8.108;2023-07-24T12:00:45;28.00;99.90
4520;DHT22;2272;49.226;8.108;2023-07-24T12:03:13;27.40;99.90
4520;DHT22;2272;49.226;8.108;2023-07-24T12:05:40;26.80;99.90
4520;DHT22;2272;49.226;8.108;2023-07-24T12:08:09;26.30;99.90
4520;DHT22;2272;49.226;8.108;2023-07-24T12:10:37;26.10;99.90
4520;DHT22;2272;49.226;8.108;2023-07-24T12:13:04;26.20;99.90
4520;DHT22;2272;49.226;8.108;2023-07-24T12:15:31;26.30;99.90
4520;DHT22;2272;49.226;8.108;2023-07-24T12:18:00;26.40;99.90
4520;DHT22;2272;49.226;8.108;2023-07-24T12:20:28;26.50;99.90
4520;DHT22;2272;49.226;8.108;2023-07-24T12:22:55;26.60;99.90
4520;DHT22;2272;49.226;8.108;2023-07-24T12:25:23;26.90;99.90
4520;DHT22;2272;49.226;8.108;2023-07-24T12:27:50;27.10;99.90
4520;DHT22;2272;49.226;8.108;2023-07-24T12:30:18;27.30;99.90
4520;DHT22;2272;49.226;8.108;2023-07-24T12:32:45;27.50;99.90
4520;DHT22;2272;49.226;8.108;2023-07-24T12:35:12;27.80;99.90
4520;DHT22;2272;49.226;8.108;2023-07-24T12:37:39;28.20;99.90
4520;DHT22;2272;49.226;8.108;2023-07-24T12:40:09;28.50;99.90
4520;DHT22;2272;49.226;8.108;2023-07-24T12:42:40;28.70;99.90
4520;DHT22;2272;49.226;8.108;2023-07-24T12:45:08;28.80;99.70
4520;DHT22;2272;49.226;8.108;2023-07-24T12:47:35;29.00;99.20
4520;DHT22;2272;49.226;8.108;2023-07-24T12:50:02;29.30;98.50
4520;DHT22;2272;49.226;8.108;2023-07-24T12:52:29;29.40;98.20
4520;DHT22;2272;49.226;8.108;2023-07-24T12:54:56;29.50;98.00
4520;DHT22;2272;49.226;8.108;2023-07-24T12:57:23;29.70;97.00
4520;DHT22;2272;49.226;8.108;2023-07-24T12:59:55;29.80;96.50
4520;DHT22;2272;49.226;8.108;2023-07-24T13:02:23;30.00;96.00
4520;DHT22;2272;49.226;8.108;2023-07-24T13:04:50;30.00;95.90
4520;DHT22;2272;49.226;8.108;2023-07-24T13:07:17;29.90;96.00
4520;DHT22;2272;49.226;8.108;2023-07-24T13:09:44;29.50;96.30
4520;DHT22;2272;49.226;8.108;2023-07-24T13:12:11;29.60;96.60
4520;DHT22;2272;49.226;8.108;2023-07-24T13:14:38;29.90;96.00
4520;DHT22;2272;49.226;8.108;2023-07-24T13:17:06;29.90;95.20
4520;DHT22;2272;49.226;8.108;2023-07-24T13:19:33;29.80;95.50
4520;DHT22;2272;49.226;8.108;2023-07-24T13:22:00;29.60;95.80
4520;DHT22;2272;49.226;8.108;2023-07-24T13:24:27;29.80;95.50
4520;DHT22;2272;49.226;8.108;2023-07-24T13:26:58;29.90;95.10
4520;DHT22;2272;49.226;8.108;2023-07-24T13:29:25;29.60;95.20
4520;DHT22;2272;49.226;8.108;2023-07-24T13:31:52;29.30;95.20
4520;DHT22;2272;49.226;8.108;2023-07-24T13:34:23;29.40;95.30
4520;DHT22;2272;49.226;8.108;2023-07-24T13:36:50;29.40;95.30
4520;DHT22;2272;49.226;8.108;2023-07-24T13:39:17;29.30;95.30
4520;DHT22;2272;49.226;8.108;2023-07-24T13:41:49;29.10;95.40
4520;DHT22;2272;49.226;8.108;2023-07-24T13:44:16;28.70;95.80
4520;DHT22;2272;49.226;8.108;2023-07-24T13:46:54;28.20;96.30
4520;DHT22;2272;49.226;8.108;2023-07-24T13:49:25;27.80;96.90
4520;DHT22;2272;49.226;8.108;2023-07-24T13:51:52;27.50;97.30
4520;DHT22;2272;49.226;8.108;2023-07-24T13:54:19;27.10;97.70
4520;DHT22;2272;49.226;8.108;2023-07-24T13:56:45;26.60;98.20
4520;DHT22;2272;49.226;8.108;2023-07-24T13:59:18;26.10;99.20
4520;DHT22;2272;49.226;8.108;2023-07-24T14:01:46;25.40;99.90
4520;DHT22;2272;49.226;8.108;2023-07-24T14:04:13;25.00;99.90
4520;DHT22;2272;49.226;8.108;2023-07-24T14:06:41;24.60;99.90
4520;DHT22;2272;49.226;8.108;2023-07-24T14:09:08;24.00;99.90
4520;DHT22;2272;49.226;8.108;2023-07-24T14:11:34;22.90;99.90
4520;DHT22;2272;49.226;8.108;2023-07-24T14:14:01;21.80;99.90
4520;DHT22;2272;49.226;8.108;2023-07-24T14:16:28;20.80;99.90
4520;DHT22;2272;49.226;8.108;2023-07-24T14:18:54;20.30;99.90
4520;DHT22;2272;49.226;8.108;2023-07-24T14:21:21;20.00;99.90
4520;DHT22;2272;49.226;8.108;2023-07-24T14:23:49;19.90;99.90
4520;DHT22;2272;49.226;8.108;2023-07-24T14:26:16;20.00;99.90
4520;DHT22;2272;49.226;8.108;2023-07-24T14:28:42;20.20;99.90
4520;DHT22;2272;49.226;8.108;2023-07-24T14:31:09;20.50;99.90
4520;DHT22;2272;49.226;8.108;2023-07-24T14:33:36;20.90;99.90
4520;DHT22;2272;49.226;8.108;2023-07-24T14:36:06;21.10;99.90
4520;DHT22;2272;49.226;8.108;2023-07-24T14:38:32;21.30;99.90
4520;DHT22;2272;49.226;8.108;2023-07-24T14:41:00;21.50;99.90
4520;DHT22;2272;49.226;8.108;2023-07-24T14:43:27;21.90;99.90
4520;DHT22;2272;49.226;8.108;2023-07-24T14:45:54;22.30;99.90
4520;DHT22;2272;49.226;8.108;2023-07-24T14:48:29;22.40;99.90
4520;DHT22;2272;49.226;8.108;2023-07-24T14:50:59;22.70;99.90
4520;DHT22;2272;49.226;8.108;2023-07-24T14:53:28;23.30;99.90
4520;DHT22;2272;49.226;8.108;2023-07-24T14:55:57;23.70;99.90
4520;DHT22;2272;49.226;8.108;2023-07-24T14:58:25;24.10;99.90
4520;DHT22;2272;49.226;8.108;2023-07-24T15:00:52;24.40;99.90
4520;DHT22;2272;49.226;8.108;2023-07-24T15:03:18;24.50;99.90
4520;DHT22;2272;49.226;8.108;2023-07-24T15:05:45;24.80;99.90
4520;DHT22;2272;49.226;8.108;2023-07-24T15:08:12;24.80;99.90
4520;DHT22;2272;49.226;8.108;2023-07-24T15:10:39;24.90;99.90
4520;DHT22;2272;49.226;8.108;2023-07-24T15:13:06;25.00;99.90
4520;DHT22;2272;49.226;8.108;2023-07-24T15:15:34;25.10;99.90
4520;DHT22;2272;49.226;8.108;2023-07-24T15:18:01;25.20;99.90
4520;DHT22;2272;49.226;8.108;2023-07-24T15:20:28;25.20;99.90
4520;DHT22;2272;49.226;8.108;2023-07-24T15:22:55;25.40;99.90
4520;DHT22;2272;49.226;8.108;2023-07-24T15:25:21;25.80;99.90
4520;DHT22;2272;49.226;8.108;2023-07-24T15:27:48;26.00;99.90
4520;DHT22;2272;49.226;8.108;2023-07-24T15:30:15;26.10;99.90
4520;DHT22;2272;49.226;8.108;2023-07-24T15:32:43;25.90;99.90
4520;DHT22;2272;49.226;8.108;2023-07-24T15:35:11;25.70;99.90
4520;DHT22;2272;49.226;8.108;2023-07-24T15:37:38;25.70;99.90
4520;DHT22;2272;49.226;8.108;2023-07-24T15:40:06;25.50;99.90
4520;DHT22;2272;49.226;8.108;2023-07-24T15:42:33;25.50;99.90
4520;DHT22;2272;49.226;8.108;2023-07-24T15:45:00;25.60;99.90
4520;DHT22;2272;49.226;8.108;2023-07-24T15:47:27;25.50;99.90
4520;DHT22;2272;49.226;8.108;2023-07-24T15:49:55;25.40;99.90
4520;DHT22;2272;49.226;8.108;2023-07-24T15:52:23;25.30;99.90
4520;DHT22;2272;49.226;8.108;2023-07-24T15:54:50;25.40;99.90
4520;DHT22;2272;49.226;8.108;2023-07-24T15:57:18;25.30;99.90
4520;DHT22;2272;49.226;8.108;2023-07-24T15:59:44;25.20;99.90
4520;DHT22;2272;49.226;8.108;2023-07-24T16:02:11;25.10;99.90
4520;DHT22;2272;49.226;8.108;2023-07-24T16:04:38;25.40;99.90
4520;DHT22;2272;49.226;8.108;2023-07-24T16:07:06;25.30;99.90
4520;DHT22;2272;49.226;8.108;2023-07-24T16:09:33;25.30;99.90